sensor_id;sensor_type;location;lat;lon;timestamp;temperature;humidity
5808;DHT22;2930;42.678;23.312;2022-09-09T00:02:20;19.90;78.30
5808;DHT22;2930;42.678;23.312;2022-09-09T00:04:59;19.80;78.40
5808;DHT22;2930;42.678;23.312;2022-09-09T00:07:50;19.80;77.70
5808;DHT22;2930;42.678;23.312;2022-09-09T00:10:29;19.70;79.30
5808;DHT22;2930;42.678;23.312;2022-09-09T00:13:11;19.70;78.10
5808;DHT22;2930;42.678;23.312;2022-09-09T00:15:54;19.60;78.50
5808;DHT22;2930;42.678;23.312;2022-09-09T00:21:11;19.50;79.00
5808;DHT22;2930;42.678;23.312;2022-09-09T00:23:39;19.50;79.10
5808;DHT22;2930;42.678;23.312;2022-09-09T00:31:34;19.40;77.20
5808;DHT22;2930;42.678;23.312;2022-09-09T00:34:16;19.40;78.20
5808;DHT22;2930;42.678;23.312;2022-09-09T00:36:43;19.40;78.70
5808;DHT22;2930;42.678;23.312;2022-09-09T00:39:31;19.40;78.80
5808;DHT22;2930;42.678;23.312;2022-09-09T00:42:09;19.30;77.40
5808;DHT22;2930;42.678;23.312;2022-09-09T00:44:48;19.30;77.80
5808;DHT22;2930;42.678;23.312;2022-09-09T00:47:39;19.30;77.90
5808;DHT22;2930;42.678;23.312;2022-09-09T00:50:39;19.30;77.70
5808;DHT22;2930;42.678;23.312;2022-09-09T00:58:33;19.20;76.50
5808;DHT22;2930;42.678;23.312;2022-09-09T01:01:04;19.20;77.80
5808;DHT22;2930;42.678;23.312;2022-09-09T01:03:53;19.20;76.80
5808;DHT22;2930;42.678;23.312;2022-09-09T01:06:30;19.20;77.50
5808;DHT22;2930;42.678;23.312;2022-09-09T01:11:25;19.20;81.40
5808;DHT22;2930;42.678;23.312;2022-09-09T01:14:01;19.20;81.30
5808;DHT22;2930;42.678;23.312;2022-09-09T01:16:30;19.10;80.00
5808;DHT22;2930;42.678;23.312;2022-09-09T01:18:58;18.90;80.30
5808;DHT22;2930;42.678;23.312;2022-09-09T01:21:39;18.90;80.30
5808;DHT22;2930;42.678;23.312;2022-09-09T01:24:27;18.90;79.90
5808;DHT22;2930;42.678;23.312;2022-09-09T01:26:56;18.90;79.70
5808;DHT22;2930;42.678;23.312;2022-09-09T01:29:24;18.90;79.60
5808;DHT22;2930;42.678;23.312;2022-09-09T01:31:54;18.80;79.10
5808;DHT22;2930;42.678;23.312;2022-09-09T01:34:21;18.80;79.30
5808;DHT22;2930;42.678;23.312;2022-09-09T01:37:03;18.90;80.30
5808;DHT22;2930;42.678;23.312;2022-09-09T01:39:32;18.90;79.80
5808;DHT22;2930;42.678;23.312;2022-09-09T01:41:58;18.90;80.90
5808;DHT22;2930;42.678;23.312;2022-09-09T01:44:25;18.90;79.80
5808;DHT22;2930;42.678;23.312;2022-09-09T01:46:51;18.80;79.20
5808;DHT22;2930;42.678;23.312;2022-09-09T01:49:17;18.80;78.90
5808;DHT22;2930;42.678;23.312;2022-09-09T01:51:47;18.80;79.20
5808;DHT22;2930;42.678;23.312;2022-09-09T01:54:14;18.80;77.90
5808;DHT22;2930;42.678;23.312;2022-09-09T01:59:42;18.80;78.30
5808;DHT22;2930;42.678;23.312;2022-09-09T02:02:30;18.80;79.70
5808;DHT22;2930;42.678;23.312;2022-09-09T02:05:15;18.80;79.80
5808;DHT22;2930;42.678;23.312;2022-09-09T02:07:49;18.80;79.20
5808;DHT22;2930;42.678;23.312;2022-09-09T02:10:42;18.80;80.40
5808;DHT22;2930;42.678;23.312;2022-09-09T02:13:14;18.80;79.50
5808;DHT22;2930;42.678;23.312;2022-09-09T02:15:57;18.80;80.90
5808;DHT22;2930;42.678;23.312;2022-09-09T02:18:32;18.70;79.90
5808;DHT22;2930;42.678;23.312;2022-09-09T02:21:00;18.70;80.60
5808;DHT22;2930;42.678;23.312;2022-09-09T02:23:28;18.70;81.40
5808;DHT22;2930;42.678;23.312;2022-09-09T02:25:56;18.70;82.50
5808;DHT22;2930;42.678;23.312;2022-09-09T02:28:25;18.60;81.60
5808;DHT22;2930;42.678;23.312;2022-09-09T02:30:52;18.60;81.90
5808;DHT22;2930;42.678;23.312;2022-09-09T02:33:23;18.60;81.90
5808;DHT22;2930;42.678;23.312;2022-09-09T02:35:51;18.60;81.80
5808;DHT22;2930;42.678;23.312;2022-09-09T02:38:18;18.60;81.90
5808;DHT22;2930;42.678;23.312;2022-09-09T02:40:44;18.50;81.40
5808;DHT22;2930;42.678;23.312;2022-09-09T02:43:11;18.50;81.40
5808;DHT22;2930;42.678;23.312;2022-09-09T02:45:44;18.50;82.40
5808;DHT22;2930;42.678;23.312;2022-09-09T02:54:09;18.50;82.10
5808;DHT22;2930;42.678;23.312;2022-09-09T02:56:40;18.50;81.80
5808;DHT22;2930;42.678;23.312;2022-09-09T02:59:07;18.50;81.50
5808;DHT22;2930;42.678;23.312;2022-09-09T03:01:33;18.40;81.40
5808;DHT22;2930;42.678;23.312;2022-09-09T03:03:59;18.40;81.40
5808;DHT22;2930;42.678;23.312;2022-09-09T03:06:24;18.40;82.30
5808;DHT22;2930;42.678;23.312;2022-09-09T03:08:50;18.40;82.80
5808;DHT22;2930;42.678;23.312;2022-09-09T03:11:17;18.40;82.60
5808;DHT22;2930;42.678;23.312;2022-09-09T03:13:43;18.40;82.20
5808;DHT22;2930;42.678;23.312;2022-09-09T03:16:09;18.30;81.80
5808;DHT22;2930;42.678;23.312;2022-09-09T03:18:34;18.30;81.40
5808;DHT22;2930;42.678;23.312;2022-09-09T03:21:00;18.20;81.20
5808;DHT22;2930;42.678;23.312;2022-09-09T03:23:26;18.20;81.60
5808;DHT22;2930;42.678;23.312;2022-09-09T03:25:52;18.20;81.20
5808;DHT22;2930;42.678;23.312;2022-09-09T03:28:20;18.20;82.40
5808;DHT22;2930;42.678;23.312;2022-09-09T03:30:46;18.20;82.80
5808;DHT22;2930;42.678;23.312;2022-09-09T03:33:12;18.20;82.60
5808;DHT22;2930;42.678;23.312;2022-09-09T03:35:38;18.20;82.60
5808;DHT22;2930;42.678;23.312;2022-09-09T03:38:04;18.10;82.20
5808;DHT22;2930;42.678;23.312;2022-09-09T03:40:30;18.10;82.00
5808;DHT22;2930;42.678;23.312;2022-09-09T03:42:56;18.00;81.50
5808;DHT22;2930;42.678;23.312;2022-09-09T03:45:22;18.00;82.00
5808;DHT22;2930;42.678;23.312;2022-09-09T03:47:47;18.00;83.00
5808;DHT22;2930;42.678;23.312;2022-09-09T03:50:13;18.00;81.70
5808;DHT22;2930;42.678;23.312;2022-09-09T03:52:40;17.90;81.10
5808;DHT22;2930;42.678;23.312;2022-09-09T03:55:07;17.90;81.00
5808;DHT22;2930;42.678;23.312;2022-09-09T03:57:33;17.90;80.90
5808;DHT22;2930;42.678;23.312;2022-09-09T04:00:04;17.90;81.10
5808;DHT22;2930;42.678;23.312;2022-09-09T04:02:30;17.90;80.90
5808;DHT22;2930;42.678;23.312;2022-09-09T04:04:56;17.90;81.10
5808;DHT22;2930;42.678;23.312;2022-09-09T04:07:22;17.90;81.50
5808;DHT22;2930;42.678;23.312;2022-09-09T04:09:47;17.90;82.50
5808;DHT22;2930;42.678;23.312;2022-09-09T04:12:13;17.90;81.20
5808;DHT22;2930;42.678;23.312;2022-09-09T04:14:39;17.90;81.50
5808;DHT22;2930;42.678;23.312;2022-09-09T04:17:05;17.90;81.30
5808;DHT22;2930;42.678;23.312;2022-09-09T04:19:32;18.00;82.60
5808;DHT22;2930;42.678;23.312;2022-09-09T04:21:58;18.00;81.80
5808;DHT22;2930;42.678;23.312;2022-09-09T04:24:24;18.00;82.00
5808;DHT22;2930;42.678;23.312;2022-09-09T04:26:50;18.00;82.60
5808;DHT22;2930;42.678;23.312;2022-09-09T04:29:16;18.00;81.80
5808;DHT22;2930;42.678;23.312;2022-09-09T04:31:42;18.00;81.50
5808;DHT22;2930;42.678;23.312;2022-09-09T04:34:09;18.00;82.20
5808;DHT22;2930;42.678;23.312;2022-09-09T04:36:34;18.00;82.10
5808;DHT22;2930;42.678;23.312;2022-09-09T04:39:00;18.00;81.40
5808;DHT22;2930;42.678;23.312;2022-09-09T04:41:27;18.00;81.60
5808;DHT22;2930;42.678;23.312;2022-09-09T04:43:53;18.00;81.60
5808;DHT22;2930;42.678;23.312;2022-09-09T04:46:22;18.00;82.30
5808;DHT22;2930;42.678;23.312;2022-09-09T04:48:49;18.00;82.00
5808;DHT22;2930;42.678;23.312;2022-09-09T04:51:15;18.10;83.40
5808;DHT22;2930;42.678;23.312;2022-09-09T04:53:41;18.10;83.30
5808;DHT22;2930;42.678;23.312;2022-09-09T04:56:11;18.10;83.00
5808;DHT22;2930;42.678;23.312;2022-09-09T04:58:38;18.10;81.90
5808;DHT22;2930;42.678;23.312;2022-09-09T05:01:09;18.10;82.30
5808;DHT22;2930;42.678;23.312;2022-09-09T05:03:35;18.10;81.60
5808;DHT22;2930;42.678;23.312;2022-09-09T05:06:11;18.20;83.00
5808;DHT22;2930;42.678;23.312;2022-09-09T05:08:38;18.20;81.60
5808;DHT22;2930;42.678;23.312;2022-09-09T05:11:20;18.20;82.10
5808;DHT22;2930;42.678;23.312;2022-09-09T05:13:46;18.20;80.70
5808;DHT22;2930;42.678;23.312;2022-09-09T05:16:13;18.30;81.40
5808;DHT22;2930;42.678;23.312;2022-09-09T05:18:42;18.30;81.30
5808;DHT22;2930;42.678;23.312;2022-09-09T05:21:09;18.30;80.90
5808;DHT22;2930;42.678;23.312;2022-09-09T05:23:35;18.40;81.90
5808;DHT22;2930;42.678;23.312;2022-09-09T05:26:03;18.40;81.40
5808;DHT22;2930;42.678;23.312;2022-09-09T05:28:28;18.50;81.30
5808;DHT22;2930;42.678;23.312;2022-09-09T05:31:04;18.60;81.40
5808;DHT22;2930;42.678;23.312;2022-09-09T05:33:31;18.60;80.00
5808;DHT22;2930;42.678;23.312;2022-09-09T05:36:08;18.70;81.30
5808;DHT22;2930;42.678;23.312;2022-09-09T05:38:36;18.80;80.10
5808;DHT22;2930;42.678;23.312;2022-09-09T05:41:03;18.80;81.30
5808;DHT22;2930;42.678;23.312;2022-09-09T05:43:29;18.90;80.90
5808;DHT22;2930;42.678;23.312;2022-09-09T05:46:12;19.00;80.90
5808;DHT22;2930;42.678;23.312;2022-09-09T05:48:40;19.00;80.20
5808;DHT22;2930;42.678;23.312;2022-09-09T05:51:09;19.10;80.60
5808;DHT22;2930;42.678;23.312;2022-09-09T05:53:36;19.20;81.00
5808;DHT22;2930;42.678;23.312;2022-09-09T05:56:07;19.30;81.30
5808;DHT22;2930;42.678;23.312;2022-09-09T05:58:36;19.30;80.70
5808;DHT22;2930;42.678;23.312;2022-09-09T06:01:14;19.40;80.70
5808;DHT22;2930;42.678;23.312;2022-09-09T06:03:41;19.40;80.00
5808;DHT22;2930;42.678;23.312;2022-09-09T06:06:12;19.50;80.40
5808;DHT22;2930;42.678;23.312;2022-09-09T06:08:40;19.50;80.90
5808;DHT22;2930;42.678;23.312;2022-09-09T06:11:12;19.60;79.80
5808;DHT22;2930;42.678;23.312;2022-09-09T06:13:39;19.60;79.30
5808;DHT22;2930;42.678;23.312;2022-09-09T06:16:17;19.70;79.60
5808;DHT22;2930;42.678;23.312;2022-09-09T06:18:44;19.80;78.80
5808;DHT22;2930;42.678;23.312;2022-09-09T06:21:18;19.80;79.50
5808;DHT22;2930;42.678;23.312;2022-09-09T06:23:44;19.90;78.80
5808;DHT22;2930;42.678;23.312;2022-09-09T06:26:13;19.90;79.40
5808;DHT22;2930;42.678;23.312;2022-09-09T06:28:40;20.00;79.30
5808;DHT22;2930;42.678;23.312;2022-09-09T06:31:10;20.10;79.10
5808;DHT22;2930;42.678;23.312;2022-09-09T06:33:38;20.20;78.80
5808;DHT22;2930;42.678;23.312;2022-09-09T06:36:16;20.20;79.00
5808;DHT22;2930;42.678;23.312;2022-09-09T06:38:42;20.30;78.00
5808;DHT22;2930;42.678;23.312;2022-09-09T06:41:09;20.40;78.30
5808;DHT22;2930;42.678;23.312;2022-09-09T06:43:35;20.40;77.90
5808;DHT22;2930;42.678;23.312;2022-09-09T06:48:42;20.50;77.70
5808;DHT22;2930;42.678;23.312;2022-09-09T06:51:19;20.60;78.20
5808;DHT22;2930;42.678;23.312;2022-09-09T06:53:49;20.60;77.30
5808;DHT22;2930;42.678;23.312;2022-09-09T06:56:26;20.70;77.60
5808;DHT22;2930;42.678;23.312;2022-09-09T06:58:53;20.80;77.20
5808;DHT22;2930;42.678;23.312;2022-09-09T07:01:22;20.90;77.40
5808;DHT22;2930;42.678;23.312;2022-09-09T07:03:53;20.90;77.20
5808;DHT22;2930;42.678;23.312;2022-09-09T07:06:34;21.00;77.20
5808;DHT22;2930;42.678;23.312;2022-09-09T07:09:02;21.00;77.20
5808;DHT22;2930;42.678;23.312;2022-09-09T07:11:32;21.10;77.10
5808;DHT22;2930;42.678;23.312;2022-09-09T07:13:58;21.20;76.80
5808;DHT22;2930;42.678;23.312;2022-09-09T07:16:25;21.30;76.90
5808;DHT22;2930;42.678;23.312;2022-09-09T07:18:53;21.40;76.90
5808;DHT22;2930;42.678;23.312;2022-09-09T07:21:24;21.50;76.30
5808;DHT22;2930;42.678;23.312;2022-09-09T07:23:50;21.60;76.10
5808;DHT22;2930;42.678;23.312;2022-09-09T07:26:19;21.70;76.30
5808;DHT22;2930;42.678;23.312;2022-09-09T07:28:45;21.80;75.50
5808;DHT22;2930;42.678;23.312;2022-09-09T07:31:19;21.90;75.70
5808;DHT22;2930;42.678;23.312;2022-09-09T07:33:46;21.90;75.10
5808;DHT22;2930;42.678;23.312;2022-09-09T07:36:18;22.00;75.80
5808;DHT22;2930;42.678;23.312;2022-09-09T07:38:49;22.10;75.30
5808;DHT22;2930;42.678;23.312;2022-09-09T07:41:24;22.20;75.60
5808;DHT22;2930;42.678;23.312;2022-09-09T07:43:50;22.30;75.10
5808;DHT22;2930;42.678;23.312;2022-09-09T07:46:18;22.40;75.00
5808;DHT22;2930;42.678;23.312;2022-09-09T07:48:55;22.60;74.00
5808;DHT22;2930;42.678;23.312;2022-09-09T07:51:25;22.60;73.80
5808;DHT22;2930;42.678;23.312;2022-09-09T07:53:55;22.70;72.60
5808;DHT22;2930;42.678;23.312;2022-09-09T07:56:23;22.80;72.60
5808;DHT22;2930;42.678;23.312;2022-09-09T07:58:50;22.90;73.40
5808;DHT22;2930;42.678;23.312;2022-09-09T08:01:20;23.00;73.70
5808;DHT22;2930;42.678;23.312;2022-09-09T08:03:51;23.20;72.30
5808;DHT22;2930;42.678;23.312;2022-09-09T08:06:17;23.40;73.50
5808;DHT22;2930;42.678;23.312;2022-09-09T08:08:43;23.60;72.10
5808;DHT22;2930;42.678;23.312;2022-09-09T08:11:14;23.80;72.40
5808;DHT22;2930;42.678;23.312;2022-09-09T08:13:41;24.00;71.50
5808;DHT22;2930;42.678;23.312;2022-09-09T08:16:11;24.30;71.10
5808;DHT22;2930;42.678;23.312;2022-09-09T08:18:38;24.50;70.80
5808;DHT22;2930;42.678;23.312;2022-09-09T08:21:19;24.80;71.20
5808;DHT22;2930;42.678;23.312;2022-09-09T08:23:47;25.00;70.10
5808;DHT22;2930;42.678;23.312;2022-09-09T08:26:18;25.20;69.60
5808;DHT22;2930;42.678;23.312;2022-09-09T08:28:49;25.50;67.90
5808;DHT22;2930;42.678;23.312;2022-09-09T08:33:44;26.00;67.50
5808;DHT22;2930;42.678;23.312;2022-09-09T08:36:15;26.20;67.30
5808;DHT22;2930;42.678;23.312;2022-09-09T08:38:42;26.40;66.60
5808;DHT22;2930;42.678;23.312;2022-09-09T08:44:06;26.90;66.00
5808;DHT22;2930;42.678;23.312;2022-09-09T08:46:42;27.20;65.20
5808;DHT22;2930;42.678;23.312;2022-09-09T08:49:30;27.30;64.60
5808;DHT22;2930;42.678;23.312;2022-09-09T08:52:11;27.40;64.40
5808;DHT22;2930;42.678;23.312;2022-09-09T08:54:41;27.70;64.60
5808;DHT22;2930;42.678;23.312;2022-09-09T08:57:14;28.10;63.70
5808;DHT22;2930;42.678;23.312;2022-09-09T08:59:40;28.50;63.40
5808;DHT22;2930;42.678;23.312;2022-09-09T09:02:44;28.90;62.50
5808;DHT22;2930;42.678;23.312;2022-09-09T09:05:32;29.40;61.70
5808;DHT22;2930;42.678;23.312;2022-09-09T09:08:10;29.90;61.50
5808;DHT22;2930;42.678;23.312;2022-09-09T09:10:48;30.30;60.20
5808;DHT22;2930;42.678;23.312;2022-09-09T09:13:50;30.80;58.50
5808;DHT22;2930;42.678;23.312;2022-09-09T09:18:49;32.10;58.60
5808;DHT22;2930;42.678;23.312;2022-09-09T09:23:58;32.70;56.70
5808;DHT22;2930;42.678;23.312;2022-09-09T09:26:29;32.60;56.80
5808;DHT22;2930;42.678;23.312;2022-09-09T09:28:56;32.60;56.60
5808;DHT22;2930;42.678;23.312;2022-09-09T09:31:24;32.50;55.90
5808;DHT22;2930;42.678;23.312;2022-09-09T09:33:56;32.40;56.70
5808;DHT22;2930;42.678;23.312;2022-09-09T09:36:37;32.10;56.30
5808;DHT22;2930;42.678;23.312;2022-09-09T09:39:04;31.90;56.10
5808;DHT22;2930;42.678;23.312;2022-09-09T09:41:39;31.70;58.90
5808;DHT22;2930;42.678;23.312;2022-09-09T09:44:29;31.60;56.90
5808;DHT22;2930;42.678;23.312;2022-09-09T09:47:16;31.60;57.10
5808;DHT22;2930;42.678;23.312;2022-09-09T09:49:59;31.80;56.60
5808;DHT22;2930;42.678;23.312;2022-09-09T09:52:27;31.90;57.30
5808;DHT22;2930;42.678;23.312;2022-09-09T09:54:55;32.00;57.60
5808;DHT22;2930;42.678;23.312;2022-09-09T09:57:31;31.90;58.00
5808;DHT22;2930;42.678;23.312;2022-09-09T10:02:45;31.60;57.20
5808;DHT22;2930;42.678;23.312;2022-09-09T10:05:18;31.40;56.70
5808;DHT22;2930;42.678;23.312;2022-09-09T10:07:45;31.20;57.80
5808;DHT22;2930;42.678;23.312;2022-09-09T10:10:25;30.80;58.30
5808;DHT22;2930;42.678;23.312;2022-09-09T10:13:11;30.60;58.60
5808;DHT22;2930;42.678;23.312;2022-09-09T10:16:04;30.40;59.10
5808;DHT22;2930;42.678;23.312;2022-09-09T10:18:55;30.30;59.40
5808;DHT22;2930;42.678;23.312;2022-09-09T10:32:26;29.20;59.90
5808;DHT22;2930;42.678;23.312;2022-09-09T10:35:30;29.10;60.10
5808;DHT22;2930;42.678;23.312;2022-09-09T10:38:18;29.00;60.10
5808;DHT22;2930;42.678;23.312;2022-09-09T10:46:23;28.90;60.40
5808;DHT22;2930;42.678;23.312;2022-09-09T10:54:24;28.50;61.50
5808;DHT22;2930;42.678;23.312;2022-09-09T10:57:04;28.30;61.70
5808;DHT22;2930;42.678;23.312;2022-09-09T10:59:39;28.30;62.20
5808;DHT22;2930;42.678;23.312;2022-09-09T11:02:16;28.40;61.70
5808;DHT22;2930;42.678;23.312;2022-09-09T11:04:55;28.30;62.20
5808;DHT22;2930;42.678;23.312;2022-09-09T11:10:01;28.10;62.80
5808;DHT22;2930;42.678;23.312;2022-09-09T11:12:29;27.90;63.40
5808;DHT22;2930;42.678;23.312;2022-09-09T11:15:02;27.90;63.10
5808;DHT22;2930;42.678;23.312;2022-09-09T11:17:40;27.80;63.00
5808;DHT22;2930;42.678;23.312;2022-09-09T11:20:11;27.80;63.20
5808;DHT22;2930;42.678;23.312;2022-09-09T11:22:48;27.80;63.40
5808;DHT22;2930;42.678;23.312;2022-09-09T11:25:26;27.90;63.40
5808;DHT22;2930;42.678;23.312;2022-09-09T11:38:53;28.20;63.90
5808;DHT22;2930;42.678;23.312;2022-09-09T11:41:22;28.30;63.90
5808;DHT22;2930;42.678;23.312;2022-09-09T11:43:50;28.30;64.20
5808;DHT22;2930;42.678;23.312;2022-09-09T11:46:20;28.30;64.40
5808;DHT22;2930;42.678;23.312;2022-09-09T11:49:02;28.40;64.40
5808;DHT22;2930;42.678;23.312;2022-09-09T11:51:31;28.40;64.30
5808;DHT22;2930;42.678;23.312;2022-09-09T11:56:32;28.60;64.30
5808;DHT22;2930;42.678;23.312;2022-09-09T11:59:04;28.80;64.30
5808;DHT22;2930;42.678;23.312;2022-09-09T12:01:41;28.90;64.60
5808;DHT22;2930;42.678;23.312;2022-09-09T12:04:32;29.20;64.10
5808;DHT22;2930;42.678;23.312;2022-09-09T12:07:05;29.50;63.60
5808;DHT22;2930;42.678;23.312;2022-09-09T12:09:52;30.00;63.50
5808;DHT22;2930;42.678;23.312;2022-09-09T12:17:47;31.80;60.80
5808;DHT22;2930;42.678;23.312;2022-09-09T12:20:14;32.40;60.80
5808;DHT22;2930;42.678;23.312;2022-09-09T12:23:01;32.70;58.90
5808;DHT22;2930;42.678;23.312;2022-09-09T12:33:54;33.50;58.50
5808;DHT22;2930;42.678;23.312;2022-09-09T12:36:28;33.70;56.50
5808;DHT22;2930;42.678;23.312;2022-09-09T12:38:58;33.80;58.00
5808;DHT22;2930;42.678;23.312;2022-09-09T12:41:26;33.80;57.70
5808;DHT22;2930;42.678;23.312;2022-09-09T12:44:04;33.70;57.50
5808;DHT22;2930;42.678;23.312;2022-09-09T12:46:41;33.60;57.80
5808;DHT22;2930;42.678;23.312;2022-09-09T12:49:29;33.40;57.80
5808;DHT22;2930;42.678;23.312;2022-09-09T12:54:44;32.90;58.00
5808;DHT22;2930;42.678;23.312;2022-09-09T12:57:14;32.80;58.20
5808;DHT22;2930;42.678;23.312;2022-09-09T12:59:43;32.50;58.00
5808;DHT22;2930;42.678;23.312;2022-09-09T13:02:25;32.40;58.60
5808;DHT22;2930;42.678;23.312;2022-09-09T13:04:51;32.50;58.40
5808;DHT22;2930;42.678;23.312;2022-09-09T13:07:18;32.60;59.10
5808;DHT22;2930;42.678;23.312;2022-09-09T13:09:46;32.60;59.50
5808;DHT22;2930;42.678;23.312;2022-09-09T13:12:18;32.70;59.30
5808;DHT22;2930;42.678;23.312;2022-09-09T13:14:47;32.60;58.80
5808;DHT22;2930;42.678;23.312;2022-09-09T13:17:25;32.60;58.60
5808;DHT22;2930;42.678;23.312;2022-09-09T13:19:52;32.50;58.60
5808;DHT22;2930;42.678;23.312;2022-09-09T13:22:33;32.50;58.00
5808;DHT22;2930;42.678;23.312;2022-09-09T13:27:39;32.20;58.60
5808;DHT22;2930;42.678;23.312;2022-09-09T13:35:52;31.50;60.10
5808;DHT22;2930;42.678;23.312;2022-09-09T13:38:20;31.40;59.70
5808;DHT22;2930;42.678;23.312;2022-09-09T13:40:58;31.20;60.30
5808;DHT22;2930;42.678;23.312;2022-09-09T13:43:27;31.10;60.70
5808;DHT22;2930;42.678;23.312;2022-09-09T13:46:23;31.00;61.00
5808;DHT22;2930;42.678;23.312;2022-09-09T13:48:57;30.70;61.20
5808;DHT22;2930;42.678;23.312;2022-09-09T13:51:35;30.50;61.50
5808;DHT22;2930;42.678;23.312;2022-09-09T13:54:06;30.40;61.70
5808;DHT22;2930;42.678;23.312;2022-09-09T13:56:36;30.30;61.90
5808;DHT22;2930;42.678;23.312;2022-09-09T13:59:04;30.40;61.70
5808;DHT22;2930;42.678;23.312;2022-09-09T14:01:30;30.40;61.60
5808;DHT22;2930;42.678;23.312;2022-09-09T14:03:56;30.40;61.90
5808;DHT22;2930;42.678;23.312;2022-09-09T14:06:22;30.50;62.00
5808;DHT22;2930;42.678;23.312;2022-09-09T14:08:52;30.60;61.90
5808;DHT22;2930;42.678;23.312;2022-09-09T14:11:18;30.70;62.10
5808;DHT22;2930;42.678;23.312;2022-09-09T14:13:44;30.90;61.80
5808;DHT22;2930;42.678;23.312;2022-09-09T14:16:10;31.10;61.80
5808;DHT22;2930;42.678;23.312;2022-09-09T14:18:36;31.40;61.20
5808;DHT22;2930;42.678;23.312;2022-09-09T14:21:03;31.50;61.00
5808;DHT22;2930;42.678;23.312;2022-09-09T14:23:29;31.50;60.80
5808;DHT22;2930;42.678;23.312;2022-09-09T14:25:55;31.50;60.70
5808;DHT22;2930;42.678;23.312;2022-09-09T14:28:21;31.50;60.60
5808;DHT22;2930;42.678;23.312;2022-09-09T14:30:47;31.30;60.70
5808;DHT22;2930;42.678;23.312;2022-09-09T14:33:15;31.10;60.90
5808;DHT22;2930;42.678;23.312;2022-09-09T14:35:41;31.10;60.40
5808;DHT22;2930;42.678;23.312;2022-09-09T14:38:08;31.00;61.10
5808;DHT22;2930;42.678;23.312;2022-09-09T14:40:35;30.90;60.90
5808;DHT22;2930;42.678;23.312;2022-09-09T14:43:01;30.70;61.10
5808;DHT22;2930;42.678;23.312;2022-09-09T14:45:27;30.50;61.40
5808;DHT22;2930;42.678;23.312;2022-09-09T14:47:53;30.30;62.20
5808;DHT22;2930;42.678;23.312;2022-09-09T14:50:20;30.30;62.20
5808;DHT22;2930;42.678;23.312;2022-09-09T14:52:46;30.40;62.40
5808;DHT22;2930;42.678;23.312;2022-09-09T14:55:12;30.50;62.30
5808;DHT22;2930;42.678;23.312;2022-09-09T14:57:38;30.50;61.90
5808;DHT22;2930;42.678;23.312;2022-09-09T15:00:07;30.50;61.60
5808;DHT22;2930;42.678;23.312;2022-09-09T15:02:33;30.40;61.70
5808;DHT22;2930;42.678;23.312;2022-09-09T15:04:59;30.30;61.70
5808;DHT22;2930;42.678;23.312;2022-09-09T15:07:25;30.20;62.00
5808;DHT22;2930;42.678;23.312;2022-09-09T15:09:52;30.00;62.30
5808;DHT22;2930;42.678;23.312;2022-09-09T15:12:18;29.90;61.90
5808;DHT22;2930;42.678;23.312;2022-09-09T15:14:45;29.70;62.00
5808;DHT22;2930;42.678;23.312;2022-09-09T15:17:11;29.50;62.00
5808;DHT22;2930;42.678;23.312;2022-09-09T15:19:37;29.50;61.80
5808;DHT22;2930;42.678;23.312;2022-09-09T15:22:04;29.40;61.80
5808;DHT22;2930;42.678;23.312;2022-09-09T15:24:31;29.40;61.90
5808;DHT22;2930;42.678;23.312;2022-09-09T15:26:57;29.50;61.80
5808;DHT22;2930;42.678;23.312;2022-09-09T15:29:24;29.50;61.80
5808;DHT22;2930;42.678;23.312;2022-09-09T15:31:49;29.40;62.00
5808;DHT22;2930;42.678;23.312;2022-09-09T15:34:15;29.40;62.00
5808;DHT22;2930;42.678;23.312;2022-09-09T15:36:43;29.30;62.20
5808;DHT22;2930;42.678;23.312;2022-09-09T15:39:10;29.20;62.20
5808;DHT22;2930;42.678;23.312;2022-09-09T15:41:38;29.20;62.00
5808;DHT22;2930;42.678;23.312;2022-09-09T15:44:04;29.10;62.20
5808;DHT22;2930;42.678;23.312;2022-09-09T15:46:34;28.90;62.40
5808;DHT22;2930;42.678;23.312;2022-09-09T15:49:11;28.80;62.80
5808;DHT22;2930;42.678;23.312;2022-09-09T15:51:43;28.80;62.80
5808;DHT22;2930;42.678;23.312;2022-09-09T15:54:11;28.70;62.90
5808;DHT22;2930;42.678;23.312;2022-09-09T15:56:37;28.40;63.90
5808;DHT22;2930;42.678;23.312;2022-09-09T15:59:03;28.20;63.70
5808;DHT22;2930;42.678;23.312;2022-09-09T16:01:30;28.00;65.10
5808;DHT22;2930;42.678;23.312;2022-09-09T16:03:57;27.90;65.00
5808;DHT22;2930;42.678;23.312;2022-09-09T16:06:24;27.80;64.20
5808;DHT22;2930;42.678;23.312;2022-09-09T16:08:52;27.70;64.70
5808;DHT22;2930;42.678;23.312;2022-09-09T16:13:50;27.60;64.80
5808;DHT22;2930;42.678;23.312;2022-09-09T16:16:18;27.70;64.80
5808;DHT22;2930;42.678;23.312;2022-09-09T16:18:46;27.60;66.10
5808;DHT22;2930;42.678;23.312;2022-09-09T16:21:20;27.40;65.50
5808;DHT22;2930;42.678;23.312;2022-09-09T16:23:47;27.30;65.10
5808;DHT22;2930;42.678;23.312;2022-09-09T16:26:15;27.20;65.80
5808;DHT22;2930;42.678;23.312;2022-09-09T16:28:42;27.00;65.60
5808;DHT22;2930;42.678;23.312;2022-09-09T16:31:09;26.90;66.60
5808;DHT22;2930;42.678;23.312;2022-09-09T16:33:36;26.80;66.70
5808;DHT22;2930;42.678;23.312;2022-09-09T16:36:06;26.70;66.70
5808;DHT22;2930;42.678;23.312;2022-09-09T16:38:32;26.50;66.60
5808;DHT22;2930;42.678;23.312;2022-09-09T16:41:02;26.40;66.90
5808;DHT22;2930;42.678;23.312;2022-09-09T16:43:29;26.30;66.80
5808;DHT22;2930;42.678;23.312;2022-09-09T16:45:55;26.30;67.20
5808;DHT22;2930;42.678;23.312;2022-09-09T16:48:21;26.20;67.60
5808;DHT22;2930;42.678;23.312;2022-09-09T16:50:47;26.10;67.80
5808;DHT22;2930;42.678;23.312;2022-09-09T16:53:13;26.00;67.60
5808;DHT22;2930;42.678;23.312;2022-09-09T16:55:40;26.00;68.50
5808;DHT22;2930;42.678;23.312;2022-09-09T16:58:12;25.90;68.80
5808;DHT22;2930;42.678;23.312;2022-09-09T17:00:38;25.80;68.10
5808;DHT22;2930;42.678;23.312;2022-09-09T17:03:04;25.70;67.80
5808;DHT22;2930;42.678;23.312;2022-09-09T17:05:30;25.60;69.50
5808;DHT22;2930;42.678;23.312;2022-09-09T17:07:58;25.50;70.70
5808;DHT22;2930;42.678;23.312;2022-09-09T17:10:24;25.20;71.80
5808;DHT22;2930;42.678;23.312;2022-09-09T17:12:50;25.10;70.90
5808;DHT22;2930;42.678;23.312;2022-09-09T17:15:16;25.10;70.10
5808;DHT22;2930;42.678;23.312;2022-09-09T17:17:44;25.00;70.10
5808;DHT22;2930;42.678;23.312;2022-09-09T17:20:10;25.00;70.10
5808;DHT22;2930;42.678;23.312;2022-09-09T17:22:37;24.90;71.50
5808;DHT22;2930;42.678;23.312;2022-09-09T17:25:03;24.80;71.30
5808;DHT22;2930;42.678;23.312;2022-09-09T17:27:29;24.80;70.30
5808;DHT22;2930;42.678;23.312;2022-09-09T17:29:57;24.70;70.60
5808;DHT22;2930;42.678;23.312;2022-09-09T17:32:24;24.70;71.30
5808;DHT22;2930;42.678;23.312;2022-09-09T17:34:50;24.70;71.10
5808;DHT22;2930;42.678;23.312;2022-09-09T17:37:18;24.60;70.90
5808;DHT22;2930;42.678;23.312;2022-09-09T17:39:44;24.50;70.40
5808;DHT22;2930;42.678;23.312;2022-09-09T17:42:10;24.50;70.10
5808;DHT22;2930;42.678;23.312;2022-09-09T17:44:36;24.40;70.00
5808;DHT22;2930;42.678;23.312;2022-09-09T17:47:01;24.40;69.50
5808;DHT22;2930;42.678;23.312;2022-09-09T17:49:29;24.30;69.30
5808;DHT22;2930;42.678;23.312;2022-09-09T17:51:55;24.30;69.00
5808;DHT22;2930;42.678;23.312;2022-09-09T17:54:22;24.30;69.60